TimeCST,TemperatureF,Dew PointF,Humidity,Sea Level PressureIn,VisibilityMPH,Wind Direction,Wind SpeedMPH,Gust SpeedMPH,PrecipitationIn,Events,Conditions,WindDirDegrees,DateUTC
12:51 AM,19.0,10.9,71,30.17,10.0,ENE,5.8,-,0.00,,Overcast,60,2013-01-13 06:51:00
1:51 AM,19.0,10.0,68,30.19,10.0,NNE,10.4,-,0.00,,Overcast,20,2013-01-13 07:51:00
2:51 AM,19.0,10.0,68,30.22,10.0,NE,6.9,-,0.00,,Overcast,40,2013-01-13 08:51:00
3:51 AM,18.0,9.0,68,30.25,10.0,North,8.1,-,0.00,,Overcast,360,2013-01-13 09:51:00
4:51 AM,17.1,9.0,71,30.23,10.0,North,6.9,-,N/A,,Overcast,10,2013-01-13 10:51:00
5:51 AM,16.0,8.1,71,30.25,10.0,North,5.8,-,N/A,,Overcast,360,2013-01-13 11:51:00
6:51 AM,16.0,9.0,74,30.27,10.0,Calm,Calm,-,N/A,,Overcast,0,2013-01-13 12:51:00
7:51 AM,16.0,9.0,74,30.30,10.0,Calm,Calm,-,N/A,,Clear,0,2013-01-13 13:51:00
8:51 AM,17.1,9.0,71,30.32,10.0,NNE,3.5,-,N/A,,Clear,30,2013-01-13 14:51:00
9:51 AM,19.0,9.0,65,30.31,10.0,NNE,3.5,-,N/A,,Clear,30,2013-01-13 15:51:00
10:51 AM,19.9,10.0,65,30.33,10.0,Calm,Calm,-,N/A,,Clear,0,2013-01-13 16:51:00
11:51 AM,23.0,10.0,58,30.29,9.0,Variable,3.5,-,0.01,Snow,Light Snow,0,2013-01-13 17:51:00
12:51 PM,24.1,10.9,57,30.25,10.0,Calm,Calm,-,0.00,,Clear,0,2013-01-13 18:51:00
1:51 PM,25.0,12.9,60,30.23,10.0,Calm,Calm,-,N/A,,Clear,0,2013-01-13 19:51:00
2:51 PM,27.0,12.9,56,30.23,10.0,Calm,Calm,-,N/A,,Clear,0,2013-01-13 20:51:00
3:51 PM,27.0,14.0,58,30.24,10.0,ENE,5.8,-,N/A,,Partly Cloudy,60,2013-01-13 21:51:00
5:51 PM,23.0,12.9,65,30.26,10.0,ESE,5.8,-,N/A,,Clear,110,2013-01-13 23:51:00
6:51 PM,21.9,12.9,68,30.29,10.0,East,3.5,-,N/A,,Clear,90,2013-01-14 00:51:00
7:51 PM,21.0,12.0,68,30.30,10.0,SE,4.6,-,N/A,,Clear,130,2013-01-14 01:51:00
8:51 PM,21.0,12.9,71,30.30,10.0,East,4.6,-,N/A,,Clear,80,2013-01-14 02:51:00
9:51 PM,21.0,12.0,68,30.30,10.0,East,3.5,-,N/A,,Clear,80,2013-01-14 03:51:00
10:51 PM,19.9,12.0,71,30.32,10.0,ENE,3.5,-,N/A,,Clear,70,2013-01-14 04:51:00